sensor_id;sensor_type;location;lat;lon;timestamp;temperature;humidity
71304;DHT22;59091;47.446;19.148;2024-03-25T00:02:07;6.98;68.44
71304;DHT22;59091;47.446;19.148;2024-03-25T00:04:32;6.96;68.37
71304;DHT22;59091;47.446;19.148;2024-03-25T00:06:58;6.85;68.32
71304;DHT22;59091;47.446;19.148;2024-03-25T00:09:24;6.74;68.15
71304;DHT22;59091;47.446;19.148;2024-03-25T00:11:49;6.64;67.72
71304;DHT22;59091;47.446;19.148;2024-03-25T00:14:20;6.77;67.32
71304;DHT22;59091;47.446;19.148;2024-03-25T00:16:45;6.89;66.81
71304;DHT22;59091;47.446;19.148;2024-03-25T00:19:11;6.88;66.50
71304;DHT22;59091;47.446;19.148;2024-03-25T00:21:37;6.84;66.36
71304;DHT22;59091;47.446;19.148;2024-03-25T00:24:02;6.89;66.21
71304;DHT22;59091;47.446;19.148;2024-03-25T00:26:28;6.96;65.94
71304;DHT22;59091;47.446;19.148;2024-03-25T00:28:53;6.95;65.97
71304;DHT22;59091;47.446;19.148;2024-03-25T00:31:19;6.96;65.85
71304;DHT22;59091;47.446;19.148;2024-03-25T00:33:45;7.03;65.90
71304;DHT22;59091;47.446;19.148;2024-03-25T00:36:10;7.09;66.15
71304;DHT22;59091;47.446;19.148;2024-03-25T00:38:36;7.10;66.18
71304;DHT22;59091;47.446;19.148;2024-03-25T00:41:01;7.13;65.97
71304;DHT22;59091;47.446;19.148;2024-03-25T00:43:27;7.15;66.09
71304;DHT22;59091;47.446;19.148;2024-03-25T00:45:53;7.09;66.64
71304;DHT22;59091;47.446;19.148;2024-03-25T00:48:18;7.08;66.48
71304;DHT22;59091;47.446;19.148;2024-03-25T00:50:44;7.03;66.38
71304;DHT22;59091;47.446;19.148;2024-03-25T00:53:09;7.02;66.53
71304;DHT22;59091;47.446;19.148;2024-03-25T00:55:34;6.99;66.42
71304;DHT22;59091;47.446;19.148;2024-03-25T00:58:02;6.92;66.56
71304;DHT22;59091;47.446;19.148;2024-03-25T01:00:27;6.92;66.58
71304;DHT22;59091;47.446;19.148;2024-03-25T01:02:53;6.81;66.79
71304;DHT22;59091;47.446;19.148;2024-03-25T01:05:18;6.79;66.91
71304;DHT22;59091;47.446;19.148;2024-03-25T01:07:43;6.79;67.02
71304;DHT22;59091;47.446;19.148;2024-03-25T01:10:09;6.72;67.32
71304;DHT22;59091;47.446;19.148;2024-03-25T01:12:34;6.74;67.30
71304;DHT22;59091;47.446;19.148;2024-03-25T01:15:00;6.68;67.28
71304;DHT22;59091;47.446;19.148;2024-03-25T01:17:28;6.68;67.35
71304;DHT22;59091;47.446;19.148;2024-03-25T01:19:53;6.59;67.65
71304;DHT22;59091;47.446;19.148;2024-03-25T01:22:19;6.59;67.69
71304;DHT22;59091;47.446;19.148;2024-03-25T01:24:44;6.59;67.69
71304;DHT22;59091;47.446;19.148;2024-03-25T01:27:10;6.58;67.51
71304;DHT22;59091;47.446;19.148;2024-03-25T01:29:35;6.47;67.62
71304;DHT22;59091;47.446;19.148;2024-03-25T01:32:00;6.34;68.09
71304;DHT22;59091;47.446;19.148;2024-03-25T01:34:27;6.31;68.08
71304;DHT22;59091;47.446;19.148;2024-03-25T01:36:53;6.28;68.27
71304;DHT22;59091;47.446;19.148;2024-03-25T01:39:18;6.38;67.90
71304;DHT22;59091;47.446;19.148;2024-03-25T01:41:44;6.45;67.74
71304;DHT22;59091;47.446;19.148;2024-03-25T01:44:10;6.37;67.65
71304;DHT22;59091;47.446;19.148;2024-03-25T01:46:36;6.45;67.42
71304;DHT22;59091;47.446;19.148;2024-03-25T01:49:02;6.49;67.08
71304;DHT22;59091;47.446;19.148;2024-03-25T01:51:27;6.49;67.23
71304;DHT22;59091;47.446;19.148;2024-03-25T01:53:54;6.59;67.14
71304;DHT22;59091;47.446;19.148;2024-03-25T01:56:21;6.57;67.03
71304;DHT22;59091;47.446;19.148;2024-03-25T01:58:48;6.63;66.99
71304;DHT22;59091;47.446;19.148;2024-03-25T02:01:14;6.69;66.85
71304;DHT22;59091;47.446;19.148;2024-03-25T02:03:42;6.64;66.91
71304;DHT22;59091;47.446;19.148;2024-03-25T02:06:14;6.59;67.24
71304;DHT22;59091;47.446;19.148;2024-03-25T02:08:41;6.61;67.20
71304;DHT22;59091;47.446;19.148;2024-03-25T02:11:07;6.65;66.96
71304;DHT22;59091;47.446;19.148;2024-03-25T02:13:34;6.68;67.23
71304;DHT22;59091;47.446;19.148;2024-03-25T02:16:00;6.65;67.16
71304;DHT22;59091;47.446;19.148;2024-03-25T02:18:26;6.64;67.37
71304;DHT22;59091;47.446;19.148;2024-03-25T02:20:51;6.67;67.12
71304;DHT22;59091;47.446;19.148;2024-03-25T02:23:17;6.64;67.00
71304;DHT22;59091;47.446;19.148;2024-03-25T02:25:42;6.68;66.88
71304;DHT22;59091;47.446;19.148;2024-03-25T02:28:08;6.65;66.74
71304;DHT22;59091;47.446;19.148;2024-03-25T02:30:34;6.61;66.71
71304;DHT22;59091;47.446;19.148;2024-03-25T02:32:59;6.63;66.70
71304;DHT22;59091;47.446;19.148;2024-03-25T02:35:26;6.59;66.61
71304;DHT22;59091;47.446;19.148;2024-03-25T02:37:52;6.61;66.71
71304;DHT22;59091;47.446;19.148;2024-03-25T02:40:19;6.59;66.80
71304;DHT22;59091;47.446;19.148;2024-03-25T02:42:44;6.59;66.84
71304;DHT22;59091;47.446;19.148;2024-03-25T02:45:10;6.57;66.93
71304;DHT22;59091;47.446;19.148;2024-03-25T02:47:36;6.52;67.16
71304;DHT22;59091;47.446;19.148;2024-03-25T02:50:01;6.57;67.20
71304;DHT22;59091;47.446;19.148;2024-03-25T02:52:27;6.47;67.47
71304;DHT22;59091;47.446;19.148;2024-03-25T02:54:52;6.45;67.48
71304;DHT22;59091;47.446;19.148;2024-03-25T02:57:19;6.47;67.49
71304;DHT22;59091;47.446;19.148;2024-03-25T02:59:45;6.42;67.32
71304;DHT22;59091;47.446;19.148;2024-03-25T03:02:10;6.41;67.40
71304;DHT22;59091;47.446;19.148;2024-03-25T03:04:36;6.38;67.56
71304;DHT22;59091;47.446;19.148;2024-03-25T03:07:01;6.37;67.55
71304;DHT22;59091;47.446;19.148;2024-03-25T03:09:26;6.30;67.66
71304;DHT22;59091;47.446;19.148;2024-03-25T03:11:52;6.26;67.83
71304;DHT22;59091;47.446;19.148;2024-03-25T03:14:17;6.23;68.05
71304;DHT22;59091;47.446;19.148;2024-03-25T03:16:43;6.24;68.02
71304;DHT22;59091;47.446;19.148;2024-03-25T03:19:08;6.21;67.93
71304;DHT22;59091;47.446;19.148;2024-03-25T03:21:34;6.18;68.26
71304;DHT22;59091;47.446;19.148;2024-03-25T03:23:59;6.16;68.20
71304;DHT22;59091;47.446;19.148;2024-03-25T03:26:24;6.13;68.14
71304;DHT22;59091;47.446;19.148;2024-03-25T03:28:56;6.16;68.08
71304;DHT22;59091;47.446;19.148;2024-03-25T03:31:22;6.16;68.21
71304;DHT22;59091;47.446;19.148;2024-03-25T03:33:48;6.10;68.34
71304;DHT22;59091;47.446;19.148;2024-03-25T03:36:18;6.13;68.21
71304;DHT22;59091;47.446;19.148;2024-03-25T03:38:44;6.11;68.37
71304;DHT22;59091;47.446;19.148;2024-03-25T03:41:09;6.10;68.46
71304;DHT22;59091;47.446;19.148;2024-03-25T03:43:35;6.10;68.64
71304;DHT22;59091;47.446;19.148;2024-03-25T03:46:01;6.10;68.89
71304;DHT22;59091;47.446;19.148;2024-03-25T03:48:27;6.11;69.00
71304;DHT22;59091;47.446;19.148;2024-03-25T03:50:52;6.16;69.17
71304;DHT22;59091;47.446;19.148;2024-03-25T03:53:18;6.21;69.25
71304;DHT22;59091;47.446;19.148;2024-03-25T03:55:56;6.18;69.24
71304;DHT22;59091;47.446;19.148;2024-03-25T03:58:22;6.26;69.39
71304;DHT22;59091;47.446;19.148;2024-03-25T04:00:48;6.27;69.40
71304;DHT22;59091;47.446;19.148;2024-03-25T04:03:14;6.37;69.51
71304;DHT22;59091;47.446;19.148;2024-03-25T04:05:39;6.40;69.57
71304;DHT22;59091;47.446;19.148;2024-03-25T04:08:05;6.49;69.48
71304;DHT22;59091;47.446;19.148;2024-03-25T04:10:31;6.52;69.47
71304;DHT22;59091;47.446;19.148;2024-03-25T04:12:56;6.54;69.35
71304;DHT22;59091;47.446;19.148;2024-03-25T04:15:22;6.59;69.28
71304;DHT22;59091;47.446;19.148;2024-03-25T04:17:47;6.72;69.20
71304;DHT22;59091;47.446;19.148;2024-03-25T04:20:15;6.78;68.97
71304;DHT22;59091;47.446;19.148;2024-03-25T04:22:44;6.78;68.74
71304;DHT22;59091;47.446;19.148;2024-03-25T04:25:10;6.84;68.89
71304;DHT22;59091;47.446;19.148;2024-03-25T04:27:42;6.85;68.51
71304;DHT22;59091;47.446;19.148;2024-03-25T04:30:08;6.88;68.34
71304;DHT22;59091;47.446;19.148;2024-03-25T04:32:35;6.84;68.39
71304;DHT22;59091;47.446;19.148;2024-03-25T04:35:02;6.72;68.10
71304;DHT22;59091;47.446;19.148;2024-03-25T04:37:28;6.87;67.95
71304;DHT22;59091;47.446;19.148;2024-03-25T04:39:54;6.85;67.81
71304;DHT22;59091;47.446;19.148;2024-03-25T04:42:20;6.92;67.83
71304;DHT22;59091;47.446;19.148;2024-03-25T04:44:46;6.84;67.63
71304;DHT22;59091;47.446;19.148;2024-03-25T04:47:11;6.99;67.65
71304;DHT22;59091;47.446;19.148;2024-03-25T04:49:37;6.96;67.51
71304;DHT22;59091;47.446;19.148;2024-03-25T04:52:04;7.09;67.42
71304;DHT22;59091;47.446;19.148;2024-03-25T04:54:29;7.06;66.95
71304;DHT22;59091;47.446;19.148;2024-03-25T04:56:55;7.12;66.83
71304;DHT22;59091;47.446;19.148;2024-03-25T04:59:21;7.08;66.86
71304;DHT22;59091;47.446;19.148;2024-03-25T05:01:46;7.16;66.90
71304;DHT22;59091;47.446;19.148;2024-03-25T05:04:12;7.26;66.84
71304;DHT22;59091;47.446;19.148;2024-03-25T05:06:37;7.29;66.51
71304;DHT22;59091;47.446;19.148;2024-03-25T05:09:03;7.27;66.67
71304;DHT22;59091;47.446;19.148;2024-03-25T05:11:28;7.31;66.38
71304;DHT22;59091;47.446;19.148;2024-03-25T05:13:53;7.34;66.00
71304;DHT22;59091;47.446;19.148;2024-03-25T05:16:19;7.19;66.41
71304;DHT22;59091;47.446;19.148;2024-03-25T05:18:44;7.08;66.74
71304;DHT22;59091;47.446;19.148;2024-03-25T05:21:10;7.13;66.68
71304;DHT22;59091;47.446;19.148;2024-03-25T05:23:35;7.39;69.99
71304;DHT22;59091;47.446;19.148;2024-03-25T05:26:00;7.23;66.21
71304;DHT22;59091;47.446;19.148;2024-03-25T05:28:26;7.13;66.41
71304;DHT22;59091;47.446;19.148;2024-03-25T05:30:51;7.08;66.55
71304;DHT22;59091;47.446;19.148;2024-03-25T05:33:17;7.19;66.65
71304;DHT22;59091;47.446;19.148;2024-03-25T05:35:42;7.27;67.56
71304;DHT22;59091;47.446;19.148;2024-03-25T05:38:07;7.37;66.90
71304;DHT22;59091;47.446;19.148;2024-03-25T05:40:33;7.24;66.89
71304;DHT22;59091;47.446;19.148;2024-03-25T05:42:58;7.31;67.23
71304;DHT22;59091;47.446;19.148;2024-03-25T05:45:24;7.12;67.22
71304;DHT22;59091;47.446;19.148;2024-03-25T05:47:52;7.12;67.53
71304;DHT22;59091;47.446;19.148;2024-03-25T05:50:18;7.34;67.38
71304;DHT22;59091;47.446;19.148;2024-03-25T05:52:43;7.47;67.08
71304;DHT22;59091;47.446;19.148;2024-03-25T05:55:09;7.77;68.04
71304;DHT22;59091;47.446;19.148;2024-03-25T05:57:38;7.66;66.87
71304;DHT22;59091;47.446;19.148;2024-03-25T06:00:03;7.64;67.16
71304;DHT22;59091;47.446;19.148;2024-03-25T06:02:29;7.60;67.07
71304;DHT22;59091;47.446;19.148;2024-03-25T06:04:55;7.66;67.43
71304;DHT22;59091;47.446;19.148;2024-03-25T06:07:22;7.57;67.74
71304;DHT22;59091;47.446;19.148;2024-03-25T06:09:47;7.37;68.73
71304;DHT22;59091;47.446;19.148;2024-03-25T06:12:13;7.30;69.24
71304;DHT22;59091;47.446;19.148;2024-03-25T06:14:38;7.49;69.02
71304;DHT22;59091;47.446;19.148;2024-03-25T06:17:04;7.49;69.05
71304;DHT22;59091;47.446;19.148;2024-03-25T06:19:30;7.66;68.58
71304;DHT22;59091;47.446;19.148;2024-03-25T06:21:55;7.78;68.48
71304;DHT22;59091;47.446;19.148;2024-03-25T06:24:20;7.94;68.32
71304;DHT22;59091;47.446;19.148;2024-03-25T06:26:46;8.26;74.57
71304;DHT22;59091;47.446;19.148;2024-03-25T06:29:11;8.31;68.04
71304;DHT22;59091;47.446;19.148;2024-03-25T06:31:37;8.18;67.38
71304;DHT22;59091;47.446;19.148;2024-03-25T06:34:21;8.16;67.38
71304;DHT22;59091;47.446;19.148;2024-03-25T06:36:47;8.09;67.54
71304;DHT22;59091;47.446;19.148;2024-03-25T06:39:14;8.03;67.34
71304;DHT22;59091;47.446;19.148;2024-03-25T06:41:39;8.22;68.73
71304;DHT22;59091;47.446;19.148;2024-03-25T06:44:05;8.29;68.17
71304;DHT22;59091;47.446;19.148;2024-03-25T06:46:31;7.99;67.63
71304;DHT22;59091;47.446;19.148;2024-03-25T06:48:56;8.24;67.87
71304;DHT22;59091;47.446;19.148;2024-03-25T06:51:22;8.24;67.26
71304;DHT22;59091;47.446;19.148;2024-03-25T06:53:47;8.43;70.57
71304;DHT22;59091;47.446;19.148;2024-03-25T06:56:13;8.48;67.04
71304;DHT22;59091;47.446;19.148;2024-03-25T06:58:38;8.50;67.29
71304;DHT22;59091;47.446;19.148;2024-03-25T07:01:06;8.46;66.62
71304;DHT22;59091;47.446;19.148;2024-03-25T07:03:32;8.43;66.77
71304;DHT22;59091;47.446;19.148;2024-03-25T07:05:58;8.45;66.07
71304;DHT22;59091;47.446;19.148;2024-03-25T07:08:26;8.74;66.11
71304;DHT22;59091;47.446;19.148;2024-03-25T07:10:51;8.52;65.42
71304;DHT22;59091;47.446;19.148;2024-03-25T07:13:17;8.63;65.13
71304;DHT22;59091;47.446;19.148;2024-03-25T07:15:43;8.59;65.48
71304;DHT22;59091;47.446;19.148;2024-03-25T07:18:09;8.36;65.07
71304;DHT22;59091;47.446;19.148;2024-03-25T07:20:36;8.46;64.98
71304;DHT22;59091;47.446;19.148;2024-03-25T07:23:02;8.52;64.75
71304;DHT22;59091;47.446;19.148;2024-03-25T07:25:28;8.62;64.70
71304;DHT22;59091;47.446;19.148;2024-03-25T07:27:54;8.67;64.36
71304;DHT22;59091;47.446;19.148;2024-03-25T07:30:20;8.91;63.34
71304;DHT22;59091;47.446;19.148;2024-03-25T07:32:47;9.00;62.75
71304;DHT22;59091;47.446;19.148;2024-03-25T07:35:13;9.07;61.64
71304;DHT22;59091;47.446;19.148;2024-03-25T07:37:43;9.18;61.01
71304;DHT22;59091;47.446;19.148;2024-03-25T07:40:08;9.32;60.46
71304;DHT22;59091;47.446;19.148;2024-03-25T07:42:35;9.54;60.23
71304;DHT22;59091;47.446;19.148;2024-03-25T07:45:01;9.74;59.95
71304;DHT22;59091;47.446;19.148;2024-03-25T07:47:26;9.85;59.49
71304;DHT22;59091;47.446;19.148;2024-03-25T07:49:52;10.12;60.09
71304;DHT22;59091;47.446;19.148;2024-03-25T07:52:17;10.29;59.24
71304;DHT22;59091;47.446;19.148;2024-03-25T07:54:43;10.43;58.66
71304;DHT22;59091;47.446;19.148;2024-03-25T07:57:09;10.32;57.28
71304;DHT22;59091;47.446;19.148;2024-03-25T07:59:35;10.27;57.63
71304;DHT22;59091;47.446;19.148;2024-03-25T08:02:00;10.24;58.33
71304;DHT22;59091;47.446;19.148;2024-03-25T08:04:25;10.32;58.79
71304;DHT22;59091;47.446;19.148;2024-03-25T08:06:51;10.63;58.03
71304;DHT22;59091;47.446;19.148;2024-03-25T08:09:16;10.67;57.53
71304;DHT22;59091;47.446;19.148;2024-03-25T08:11:43;10.67;57.23
71304;DHT22;59091;47.446;19.148;2024-03-25T08:14:11;10.64;56.44
71304;DHT22;59091;47.446;19.148;2024-03-25T08:16:37;10.47;56.32
71304;DHT22;59091;47.446;19.148;2024-03-25T08:19:03;10.78;56.13
71304;DHT22;59091;47.446;19.148;2024-03-25T08:21:29;10.48;55.56
71304;DHT22;59091;47.446;19.148;2024-03-25T08:23:54;10.63;55.91
71304;DHT22;59091;47.446;19.148;2024-03-25T08:26:20;10.68;56.34
71304;DHT22;59091;47.446;19.148;2024-03-25T08:28:45;10.78;55.31
71304;DHT22;59091;47.446;19.148;2024-03-25T08:31:10;10.67;55.24
71304;DHT22;59091;47.446;19.148;2024-03-25T08:33:36;10.84;55.21
71304;DHT22;59091;47.446;19.148;2024-03-25T08:36:01;10.65;55.20
71304;DHT22;59091;47.446;19.148;2024-03-25T08:38:28;11.01;59.32
71304;DHT22;59091;47.446;19.148;2024-03-25T08:40:53;11.11;54.31
71304;DHT22;59091;47.446;19.148;2024-03-25T08:43:19;11.30;54.41
71304;DHT22;59091;47.446;19.148;2024-03-25T08:45:45;11.32;53.77
71304;DHT22;59091;47.446;19.148;2024-03-25T08:48:11;11.50;53.35
71304;DHT22;59091;47.446;19.148;2024-03-25T08:50:36;11.63;52.55
71304;DHT22;59091;47.446;19.148;2024-03-25T08:53:03;11.69;52.85
71304;DHT22;59091;47.446;19.148;2024-03-25T08:55:28;11.91;52.92
71304;DHT22;59091;47.446;19.148;2024-03-25T08:57:54;12.22;53.45
71304;DHT22;59091;47.446;19.148;2024-03-25T09:00:19;12.35;51.03
71304;DHT22;59091;47.446;19.148;2024-03-25T09:02:45;12.24;51.01
71304;DHT22;59091;47.446;19.148;2024-03-25T09:05:11;12.22;50.39
71304;DHT22;59091;47.446;19.148;2024-03-25T09:07:39;12.02;50.19
71304;DHT22;59091;47.446;19.148;2024-03-25T09:10:05;11.93;51.60
71304;DHT22;59091;47.446;19.148;2024-03-25T09:12:48;11.77;51.77
71304;DHT22;59091;47.446;19.148;2024-03-25T09:15:14;11.91;53.02
71304;DHT22;59091;47.446;19.148;2024-03-25T09:17:40;12.04;51.79
71304;DHT22;59091;47.446;19.148;2024-03-25T09:20:06;12.27;51.23
71304;DHT22;59091;47.446;19.148;2024-03-25T09:22:46;12.63;51.84
71304;DHT22;59091;47.446;19.148;2024-03-25T09:25:21;12.89;50.77
71304;DHT22;59091;47.446;19.148;2024-03-25T09:27:50;12.96;46.91
71304;DHT22;59091;47.446;19.148;2024-03-25T09:30:16;12.86;46.93
71304;DHT22;59091;47.446;19.148;2024-03-25T09:32:44;12.90;46.71
71304;DHT22;59091;47.446;19.148;2024-03-25T09:35:10;12.86;47.57
71304;DHT22;59091;47.446;19.148;2024-03-25T09:37:36;13.20;49.61
71304;DHT22;59091;47.446;19.148;2024-03-25T09:40:02;13.33;48.20
71304;DHT22;59091;47.446;19.148;2024-03-25T09:42:44;13.70;48.10
71304;DHT22;59091;47.446;19.148;2024-03-25T09:45:13;13.81;45.88
71304;DHT22;59091;47.446;19.148;2024-03-25T09:47:47;13.95;45.65
71304;DHT22;59091;47.446;19.148;2024-03-25T09:50:14;13.86;44.96
71304;DHT22;59091;47.446;19.148;2024-03-25T09:52:48;13.57;44.87
71304;DHT22;59091;47.446;19.148;2024-03-25T09:55:14;13.16;47.09
71304;DHT22;59091;47.446;19.148;2024-03-25T09:57:40;13.02;49.25
71304;DHT22;59091;47.446;19.148;2024-03-25T10:00:07;12.38;54.33
71304;DHT22;59091;47.446;19.148;2024-03-25T10:02:42;11.67;57.58
71304;DHT22;59091;47.446;19.148;2024-03-25T10:05:08;11.49;58.02
71304;DHT22;59091;47.446;19.148;2024-03-25T10:07:34;11.29;59.59
71304;DHT22;59091;47.446;19.148;2024-03-25T10:10:05;11.26;59.14
71304;DHT22;59091;47.446;19.148;2024-03-25T10:12:32;11.20;60.55
71304;DHT22;59091;47.446;19.148;2024-03-25T10:14:57;11.12;57.92
71304;DHT22;59091;47.446;19.148;2024-03-25T10:17:24;11.09;59.62
71304;DHT22;59091;47.446;19.148;2024-03-25T10:19:49;11.36;60.31
71304;DHT22;59091;47.446;19.148;2024-03-25T10:22:15;11.39;59.74
71304;DHT22;59091;47.446;19.148;2024-03-25T10:24:41;11.44;58.46
71304;DHT22;59091;47.446;19.148;2024-03-25T10:27:16;11.67;56.19
71304;DHT22;59091;47.446;19.148;2024-03-25T10:29:42;11.69;52.87
71304;DHT22;59091;47.446;19.148;2024-03-25T10:32:07;11.76;50.60
71304;DHT22;59091;47.446;19.148;2024-03-25T10:34:33;11.91;51.37
71304;DHT22;59091;47.446;19.148;2024-03-25T10:37:01;12.08;51.00
71304;DHT22;59091;47.446;19.148;2024-03-25T10:39:27;12.16;49.76
71304;DHT22;59091;47.446;19.148;2024-03-25T10:41:56;12.50;49.43
71304;DHT22;59091;47.446;19.148;2024-03-25T10:44:23;12.78;49.70
71304;DHT22;59091;47.446;19.148;2024-03-25T10:47:04;12.75;48.38
71304;DHT22;59091;47.446;19.148;2024-03-25T10:49:34;13.00;48.45
71304;DHT22;59091;47.446;19.148;2024-03-25T10:52:01;13.39;46.88
71304;DHT22;59091;47.446;19.148;2024-03-25T10:54:30;13.57;47.28
71304;DHT22;59091;47.446;19.148;2024-03-25T10:56:58;13.60;45.09
71304;DHT22;59091;47.446;19.148;2024-03-25T10:59:26;13.34;46.09
71304;DHT22;59091;47.446;19.148;2024-03-25T11:01:53;13.62;45.81
71304;DHT22;59091;47.446;19.148;2024-03-25T11:04:19;13.27;45.47
71304;DHT22;59091;47.446;19.148;2024-03-25T11:06:45;13.16;44.23
71304;DHT22;59091;47.446;19.148;2024-03-25T11:09:22;13.00;46.86
71304;DHT22;59091;47.446;19.148;2024-03-25T11:11:52;12.95;45.11
71304;DHT22;59091;47.446;19.148;2024-03-25T11:14:17;12.86;44.97
71304;DHT22;59091;47.446;19.148;2024-03-25T11:16:43;12.90;44.81
71304;DHT22;59091;47.446;19.148;2024-03-25T11:19:11;12.95;44.69
71304;DHT22;59091;47.446;19.148;2024-03-25T11:21:36;12.96;45.10
71304;DHT22;59091;47.446;19.148;2024-03-25T11:24:08;13.11;45.10
71304;DHT22;59091;47.446;19.148;2024-03-25T11:26:34;13.27;43.00
71304;DHT22;59091;47.446;19.148;2024-03-25T11:29:02;13.17;43.15
71304;DHT22;59091;47.446;19.148;2024-03-25T11:31:28;12.86;42.67
71304;DHT22;59091;47.446;19.148;2024-03-25T11:33:54;12.93;43.77
71304;DHT22;59091;47.446;19.148;2024-03-25T11:36:20;12.65;46.05
71304;DHT22;59091;47.446;19.148;2024-03-25T11:39:00;12.38;48.25
71304;DHT22;59091;47.446;19.148;2024-03-25T11:41:29;12.48;48.19
71304;DHT22;59091;47.446;19.148;2024-03-25T11:43:55;12.45;48.07
71304;DHT22;59091;47.446;19.148;2024-03-25T11:46:25;12.65;51.06
71304;DHT22;59091;47.446;19.148;2024-03-25T11:48:50;12.97;47.19
71304;DHT22;59091;47.446;19.148;2024-03-25T11:51:19;12.70;45.95
71304;DHT22;59091;47.446;19.148;2024-03-25T11:53:45;12.11;47.37
71304;DHT22;59091;47.446;19.148;2024-03-25T11:56:14;11.94;50.21
71304;DHT22;59091;47.446;19.148;2024-03-25T11:58:39;11.57;51.71
71304;DHT22;59091;47.446;19.148;2024-03-25T12:01:05;11.60;50.62
71304;DHT22;59091;47.446;19.148;2024-03-25T12:03:31;11.62;49.42
71304;DHT22;59091;47.446;19.148;2024-03-25T12:05:58;11.83;50.01
71304;DHT22;59091;47.446;19.148;2024-03-25T12:08:24;11.95;49.40
71304;DHT22;59091;47.446;19.148;2024-03-25T12:10:53;11.63;48.84
71304;DHT22;59091;47.446;19.148;2024-03-25T12:13:40;11.73;49.89
71304;DHT22;59091;47.446;19.148;2024-03-25T12:16:07;12.10;50.18
71304;DHT22;59091;47.446;19.148;2024-03-25T12:18:36;12.24;51.53
71304;DHT22;59091;47.446;19.148;2024-03-25T12:21:05;12.37;48.90
71304;DHT22;59091;47.446;19.148;2024-03-25T12:23:31;12.63;48.64
71304;DHT22;59091;47.446;19.148;2024-03-25T12:25:59;12.80;47.61
71304;DHT22;59091;47.446;19.148;2024-03-25T12:28:25;12.95;47.84
71304;DHT22;59091;47.446;19.148;2024-03-25T12:30:54;12.55;49.13
71304;DHT22;59091;47.446;19.148;2024-03-25T12:33:22;11.74;54.81
71304;DHT22;59091;47.446;19.148;2024-03-25T12:35:49;11.37;58.01
71304;DHT22;59091;47.446;19.148;2024-03-25T12:38:28;11.25;59.09
71304;DHT22;59091;47.446;19.148;2024-03-25T12:41:06;10.99;60.89
71304;DHT22;59091;47.446;19.148;2024-03-25T12:43:33;11.19;60.72
71304;DHT22;59091;47.446;19.148;2024-03-25T12:45:59;11.37;61.32
71304;DHT22;59091;47.446;19.148;2024-03-25T12:48:25;11.37;61.59
71304;DHT22;59091;47.446;19.148;2024-03-25T12:50:51;11.70;61.83
71304;DHT22;59091;47.446;19.148;2024-03-25T12:53:18;11.60;59.73
71304;DHT22;59091;47.446;19.148;2024-03-25T12:55:45;11.57;60.16
71304;DHT22;59091;47.446;19.148;2024-03-25T12:58:10;11.81;58.49
71304;DHT22;59091;47.446;19.148;2024-03-25T13:00:36;12.13;58.57
71304;DHT22;59091;47.446;19.148;2024-03-25T13:03:02;12.24;58.66
71304;DHT22;59091;47.446;19.148;2024-03-25T13:05:28;12.18;56.40
71304;DHT22;59091;47.446;19.148;2024-03-25T13:07:54;12.46;56.84
71304;DHT22;59091;47.446;19.148;2024-03-25T13:10:20;12.58;56.49
71304;DHT22;59091;47.446;19.148;2024-03-25T13:12:45;12.63;56.81
71304;DHT22;59091;47.446;19.148;2024-03-25T13:15:11;12.96;53.10
71304;DHT22;59091;47.446;19.148;2024-03-25T13:17:36;13.14;53.40
71304;DHT22;59091;47.446;19.148;2024-03-25T13:20:02;13.26;52.91
71304;DHT22;59091;47.446;19.148;2024-03-25T13:22:29;13.30;52.34
71304;DHT22;59091;47.446;19.148;2024-03-25T13:24:56;13.16;51.40
71304;DHT22;59091;47.446;19.148;2024-03-25T13:27:21;12.80;51.50
71304;DHT22;59091;47.446;19.148;2024-03-25T13:29:47;12.49;52.11
71304;DHT22;59091;47.446;19.148;2024-03-25T13:32:12;12.32;52.36
71304;DHT22;59091;47.446;19.148;2024-03-25T13:34:38;12.37;51.20
71304;DHT22;59091;47.446;19.148;2024-03-25T13:37:03;12.28;49.39
71304;DHT22;59091;47.446;19.148;2024-03-25T13:39:29;12.35;50.43
71304;DHT22;59091;47.446;19.148;2024-03-25T13:41:54;12.58;50.09
71304;DHT22;59091;47.446;19.148;2024-03-25T13:44:20;12.49;48.40
71304;DHT22;59091;47.446;19.148;2024-03-25T13:46:45;12.37;49.30
71304;DHT22;59091;47.446;19.148;2024-03-25T13:49:10;12.38;50.26
71304;DHT22;59091;47.446;19.148;2024-03-25T13:51:36;12.27;49.40
71304;DHT22;59091;47.446;19.148;2024-03-25T13:54:02;12.45;50.84
71304;DHT22;59091;47.446;19.148;2024-03-25T13:56:28;12.45;50.21
71304;DHT22;59091;47.446;19.148;2024-03-25T13:58:53;12.34;50.47
71304;DHT22;59091;47.446;19.148;2024-03-25T14:01:18;12.37;50.85
71304;DHT22;59091;47.446;19.148;2024-03-25T14:03:44;12.42;50.88
71304;DHT22;59091;47.446;19.148;2024-03-25T14:06:11;12.37;52.56
71304;DHT22;59091;47.446;19.148;2024-03-25T14:08:36;12.58;52.01
71304;DHT22;59091;47.446;19.148;2024-03-25T14:11:02;12.45;52.00
71304;DHT22;59091;47.446;19.148;2024-03-25T14:13:28;12.21;51.67
71304;DHT22;59091;47.446;19.148;2024-03-25T14:15:54;12.07;50.58
71304;DHT22;59091;47.446;19.148;2024-03-25T14:18:20;12.16;48.69
71304;DHT22;59091;47.446;19.148;2024-03-25T14:20:45;11.97;48.91
71304;DHT22;59091;47.446;19.148;2024-03-25T14:23:11;12.13;49.35
71304;DHT22;59091;47.446;19.148;2024-03-25T14:25:37;12.24;47.54
71304;DHT22;59091;47.446;19.148;2024-03-25T14:28:03;12.14;47.99
71304;DHT22;59091;47.446;19.148;2024-03-25T14:30:29;12.01;47.00
71304;DHT22;59091;47.446;19.148;2024-03-25T14:32:54;12.20;46.88
71304;DHT22;59091;47.446;19.148;2024-03-25T14:35:21;12.27;46.77
71304;DHT22;59091;47.446;19.148;2024-03-25T14:37:46;12.20;46.02
71304;DHT22;59091;47.446;19.148;2024-03-25T14:40:12;12.45;45.49
71304;DHT22;59091;47.446;19.148;2024-03-25T14:42:38;12.28;45.12
71304;DHT22;59091;47.446;19.148;2024-03-25T14:45:04;12.14;44.41
71304;DHT22;59091;47.446;19.148;2024-03-25T14:47:31;12.25;44.95
71304;DHT22;59091;47.446;19.148;2024-03-25T14:49:56;12.38;45.44
71304;DHT22;59091;47.446;19.148;2024-03-25T14:52:23;12.25;44.16
71304;DHT22;59091;47.446;19.148;2024-03-25T14:54:48;12.18;44.03
71304;DHT22;59091;47.446;19.148;2024-03-25T14:57:13;12.13;43.47
71304;DHT22;59091;47.446;19.148;2024-03-25T14:59:39;12.28;48.44
71304;DHT22;59091;47.446;19.148;2024-03-25T15:02:05;12.16;43.86
71304;DHT22;59091;47.446;19.148;2024-03-25T15:04:31;12.28;43.50
71304;DHT22;59091;47.446;19.148;2024-03-25T15:06:57;12.11;44.08
71304;DHT22;59091;47.446;19.148;2024-03-25T15:09:23;12.18;44.21
71304;DHT22;59091;47.446;19.148;2024-03-25T15:11:48;12.16;44.42
71304;DHT22;59091;47.446;19.148;2024-03-25T15:14:14;12.27;44.49
71304;DHT22;59091;47.446;19.148;2024-03-25T15:16:39;12.31;44.50
71304;DHT22;59091;47.446;19.148;2024-03-25T15:19:05;12.32;44.30